Time;durP1;ratioP1;P1;durP2;ratioP2;P2;SDS_P1;SDS_P2;PMS_P1;PMS_P2;Temp;Humidity;BMP_temperature;BMP_pressure;BME280_temperature;BME280_humidity;BME280_pressure;Samples;Min_cycle;Max_cycle;Signal;HPM_P1;HPM_P2
2022/07/27 03:59:42;;;;;;;3.70;2.20;;;;;;;20.56;52.24;96566.03;4541854;23;20192;-79
2022/07/27 04:02:10;;;;;;;2.55;2.35;;;;;;;20.57;51.62;96562.38;4898756;29;20061;-79
2022/07/27 04:04:37;;;;;;;4.88;2.58;;;;;;;20.59;52.74;96567.41;4899490;29;20053;-79
2022/07/27 04:07:05;;;;;;;2.60;2.05;;;;;;;20.63;52.99;96565.09;4899385;29;20143;-79
2022/07/27 04:09:34;;;;;;;3.60;2.08;;;;;;;20.65;52.56;96565.63;4899472;29;20136;-79
2022/07/27 04:33:32;;;;;;;5.28;1.90;;;;;;;20.74;51.44;96582.72;5214425;23;20083;-81
2022/07/27 04:36:00;;;;;;;2.10;1.63;;;;;;;20.74;51.34;96578.19;4909575;29;20568;-81
2022/07/27 04:38:27;;;;;;;4.22;1.85;;;;;;;20.77;52.68;96579.56;4908274;29;20087;-79
2022/07/27 04:40:55;;;;;;;2.92;2.00;;;;;;;20.78;51.73;96583.81;4907766;29;20488;-79
2022/07/27 04:43:24;;;;;;;2.15;1.77;;;;;;;20.77;51.25;96582.19;4907891;29;20114;-82
2022/07/27 05:04:44;;;;;;;6.22;2.75;;;;;;;20.65;50.35;96600.88;5956995;23;20256;-75
2022/07/27 05:07:11;;;;;;;3.15;1.92;;;;;;;20.66;50.90;96602.50;4896915;29;20167;-75
2022/07/27 05:09:39;;;;;;;3.20;1.55;;;;;;;20.66;50.38;96601.69;4898342;29;20111;-75
2022/07/27 05:12:07;;;;;;;5.20;1.95;;;;;;;20.64;50.36;96601.94;4898120;29;20509;-75
2022/07/27 05:14:35;;;;;;;10.77;3.80;;;;;;;20.62;50.43;96600.56;4898315;29;20564;-75
2022/07/27 05:17:02;;;;;;;15.25;3.22;;;;;;;20.60;50.46;96605.31;4898361;29;20052;-75
2022/07/27 05:32:57;;;;;;;7.90;2.00;;;;;;;20.56;51.81;96624.34;5251877;23;20710;-75
2022/07/27 05:35:24;;;;;;;5.45;2.63;;;;;;;20.56;51.46;96634.13;4898409;29;20162;-75
2022/07/27 05:37:52;;;;;;;5.45;2.38;;;;;;;20.57;51.84;96631.28;4910766;29;20060;-75
2022/07/27 05:40:19;;;;;;;3.30;2.05;;;;;;;20.55;51.29;96632.50;4911383;29;20056;-76
2022/07/27 05:42:47;;;;;;;2.33;2.00;;;;;;;20.51;51.27;96644.66;4904274;29;20052;-75
2022/07/27 06:55:21;;;;;;;4.07;2.85;;;;;;;20.48;52.92;96647.78;5868674;23;20068;-79
2022/07/27 06:57:48;;;;;;;4.78;3.60;;;;;;;20.47;52.75;96652.28;4892980;29;20056;-80
2022/07/27 07:00:16;;;;;;;4.70;3.30;;;;;;;20.46;52.90;96644.59;4896857;29;20095;-79
2022/07/27 07:02:51;;;;;;;4.43;3.92;;;;;;;20.47;53.13;96647.00;4897076;29;20157;-79
2022/07/27 07:05:19;;;;;;;4.10;3.65;;;;;;;20.50;52.74;96649.16;4896844;29;20131;-79
2022/07/27 07:07:47;;;;;;;4.53;4.10;;;;;;;20.57;53.04;96649.84;4896837;29;20431;-80
2022/07/27 07:23:39;;;;;;;3.47;3.15;;;;;;;20.87;52.21;96661.88;5683272;23;20128;-75
2022/07/27 07:26:07;;;;;;;4.38;3.47;;;;;;;20.91;52.27;96662.19;4894818;29;20152;-75
2022/07/27 07:28:35;;;;;;;4.97;3.50;;;;;;;20.94;51.89;96648.44;4897676;29;20155;-75
2022/07/27 07:31:03;;;;;;;6.75;3.85;;;;;;;20.98;51.94;96652.19;4899799;29;20063;-75
2022/07/27 07:33:30;;;;;;;4.20;3.80;;;;;;;21.01;51.67;96650.91;4900192;29;20210;-75
2022/07/27 07:35:58;;;;;;;6.50;4.68;;;;;;;21.03;51.54;96648.81;4900441;29;20493;-75
2022/07/27 07:49:28;;;;;;;10.15;3.95;;;;;;;21.18;51.57;96641.81;4861220;29;20056;-75
2022/07/27 07:52:06;;;;;;;5.22;4.00;;;;;;;21.25;51.23;96643.47;4862035;29;20450;-76
2022/07/27 07:54:34;;;;;;;4.50;3.60;;;;;;;21.32;51.32;96642.25;4862709;29;20121;-75
2022/07/27 07:57:02;;;;;;;5.88;3.88;;;;;;;21.43;51.23;96650.31;4859734;29;20480;-75
2022/07/27 07:59:29;;;;;;;6.93;3.85;;;;;;;21.48;51.14;96653.84;4844097;29;20081;-75
2022/07/27 08:01:57;;;;;;;5.82;4.05;;;;;;;21.53;50.86;96658.41;4843927;29;20138;-75
2022/07/27 08:04:25;;;;;;;6.38;3.75;;;;;;;21.57;51.12;96649.69;4844114;29;20050;-75
2022/07/27 08:06:54;;;;;;;3.70;3.25;;;;;;;21.63;50.85;96647.91;4843921;29;20484;-75
2022/07/27 08:09:25;;;;;;;6.13;2.97;;;;;;;21.70;51.21;96648.50;4843885;29;20050;-76
2022/07/27 08:11:53;;;;;;;4.60;3.53;;;;;;;21.78;50.26;96649.91;4843743;29;20058;-76
2022/07/27 08:14:20;;;;;;;5.25;3.55;;;;;;;21.80;50.09;96648.59;4843864;29;20404;-75
2022/07/27 08:16:48;;;;;;;7.35;3.40;;;;;;;21.84;50.05;96651.53;4843828;29;20089;-75
2022/07/27 08:19:15;;;;;;;3.70;3.40;;;;;;;21.93;49.92;96655.34;4843678;29;20495;-76
2022/07/27 08:21:43;;;;;;;4.93;3.70;;;;;;;22.07;49.86;96655.72;4843550;29;20089;-76
2022/07/27 08:24:12;;;;;;;4.03;3.60;;;;;;;22.17;48.70;96658.44;4846000;29;20475;-76
2022/07/27 08:26:40;;;;;;;3.92;3.53;;;;;;;22.28;49.32;96658.53;4861437;29;20061;-76
2022/07/27 08:29:08;;;;;;;5.10;3.47;;;;;;;22.36;48.55;96655.41;4863812;29;20042;-76
2022/07/27 08:31:40;;;;;;;4.55;3.15;;;;;;;22.45;48.76;96655.75;4848145;29;20430;-76
2022/07/27 08:34:19;;;;;;;3.38;3.08;;;;;;;22.53;48.32;96655.25;4846023;29;20060;-76
2022/07/27 08:36:47;;;;;;;3.38;2.97;;;;;;;22.59;47.99;96660.34;4844750;29;20137;-76
2022/07/27 08:39:16;;;;;;;5.88;3.33;;;;;;;22.64;47.46;96662.25;4844355;29;20122;-76
2022/07/27 08:42:08;;;;;;;3.88;3.40;;;;;;;22.69;48.25;96653.50;4843988;29;20062;-76
2022/07/27 08:44:39;;;;;;;3.97;3.13;;;;;;;22.75;47.54;96663.09;4843947;29;20548;-76
2022/07/27 08:47:09;;;;;;;3.78;3.30;;;;;;;22.79;47.57;96658.88;4843678;29;20096;-76
2022/07/27 08:49:38;;;;;;;3.92;3.63;;;;;;;22.84;47.24;96661.53;4843843;29;20442;-76
2022/07/27 08:52:11;;;;;;;4.20;3.08;;;;;;;22.87;47.57;96671.69;4843512;29;20064;-75
2022/07/27 08:54:41;;;;;;;3.15;2.95;;;;;;;22.93;47.17;96669.84;4843390;29;20138;-76
2022/07/27 08:57:10;;;;;;;5.90;3.30;;;;;;;22.96;47.11;96659.50;4843790;29;20081;-76
2022/07/27 08:59:37;;;;;;;4.15;3.13;;;;;;;23.01;47.29;96662.19;4843332;29;20058;-76
2022/07/27 09:02:10;;;;;;;4.82;3.58;;;;;;;23.06;47.33;96668.59;4843061;29;20087;-76
2022/07/27 09:04:39;;;;;;;3.92;2.83;;;;;;;23.10;47.54;96661.69;4843427;29;20491;-76
2022/07/27 09:07:07;;;;;;;5.38;3.63;;;;;;;23.14;47.22;96663.56;4842792;29;20077;-76
2022/07/27 09:09:46;;;;;;;3.85;3.40;;;;;;;23.15;46.91;96659.84;4842965;29;20077;-76
2022/07/27 09:12:13;;;;;;;4.10;3.58;;;;;;;23.17;47.20;96651.59;4842692;29;20057;-76
2022/07/27 09:14:42;;;;;;;4.50;3.47;;;;;;;23.19;47.26;96652.94;4843266;29;20545;-76
2022/07/27 09:17:20;;;;;;;3.65;3.35;;;;;;;23.25;46.95;96659.09;4842715;29;20522;-76
2022/07/27 09:20:11;;;;;;;4.90;3.40;;;;;;;23.32;46.76;96650.84;4842714;29;20060;-76
2022/07/27 09:22:46;;;;;;;6.70;3.25;;;;;;;23.36;46.87;96647.41;4842548;29;20061;-76
2022/07/27 09:25:17;;;;;;;5.43;3.47;;;;;;;23.42;46.30;96646.38;4842649;29;20061;-76
2022/07/27 09:28:04;;;;;;;3.75;3.38;;;;;;;23.46;46.32;96641.28;4842663;29;20069;-76
2022/07/27 09:30:32;;;;;;;8.85;4.25;;;;;;;23.52;46.45;96647.44;4846840;29;20110;-78
2022/07/27 09:33:01;;;;;;;8.85;3.42;;;;;;;23.60;46.12;96645.06;4851416;29;20092;-76
2022/07/27 09:35:32;;;;;;;3.60;3.30;;;;;;;23.69;46.11;96644.56;4845912;29;20054;-76
2022/07/27 09:38:18;;;;;;;6.07;3.30;;;;;;;23.78;46.27;96649.09;4851794;29;20114;-76
2022/07/27 09:40:49;;;;;;;5.78;3.00;;;;;;;23.86;45.78;96647.78;4852062;29;20140;-76
2022/07/27 09:43:16;;;;;;;3.92;3.15;;;;;;;23.90;45.77;96640.88;4853994;29;20140;-76
2022/07/27 09:46:06;;;;;;;4.72;3.55;;;;;;;23.95;45.42;96648.84;4853758;29;20049;-76
2022/07/27 09:48:35;;;;;;;4.50;3.42;;;;;;;24.04;45.03;96654.47;4850944;29;20054;-76
2022/07/27 09:51:04;;;;;;;4.22;3.10;;;;;;;24.11;45.12;96651.53;4848476;29;20053;-76
2022/07/27 09:53:52;;;;;;;3.50;3.20;;;;;;;24.20;45.07;96650.72;4861235;29;20058;-76
2022/07/27 09:56:27;;;;;;;4.22;2.40;;;;;;;24.29;44.55;96653.63;4861575;29;20053;-76
2022/07/27 09:58:56;;;;;;;2.80;2.55;;;;;;;24.36;44.16;96637.34;4861214;29;20050;-76
2022/07/27 10:01:25;;;;;;;5.13;2.78;;;;;;;24.46;44.51;96640.03;4851747;29;20077;-77
2022/07/27 10:03:55;;;;;;;3.85;2.85;;;;;;;24.59;44.03;96644.81;4848577;29;20065;-76
2022/07/27 10:06:23;;;;;;;4.60;2.58;;;;;;;24.65;43.66;96641.06;4847580;29;20112;-76
2022/07/27 10:08:53;;;;;;;4.20;3.20;;;;;;;24.74;43.45;96643.19;4846574;29;20130;-77
2022/07/27 10:11:22;;;;;;;4.68;3.05;;;;;;;24.79;43.57;96656.50;4845516;29;20148;-76
2022/07/27 10:13:53;;;;;;;4.03;3.10;;;;;;;24.84;43.41;96654.63;4844857;29;20093;-76
2022/07/27 10:16:24;;;;;;;5.07;2.70;;;;;;;24.90;43.23;96651.94;4845258;29;20430;-76
2022/07/27 10:18:59;;;;;;;2.95;2.22;;;;;;;24.98;43.61;96654.84;4843620;29;20093;-77
2022/07/27 10:21:29;;;;;;;6.00;2.53;;;;;;;25.03;43.32;96654.81;4842955;29;20088;-76
2022/07/27 10:23:58;;;;;;;3.38;2.75;;;;;;;25.09;43.28;96656.41;4842298;29;20081;-76
2022/07/27 10:26:32;;;;;;;3.90;2.33;;;;;;;25.17;43.17;96656.91;4842916;29;20078;-76
2022/07/27 10:29:04;;;;;;;4.90;2.45;;;;;;;25.26;41.63;96664.09;4843147;29;20049;-76
2022/07/27 10:31:33;;;;;;;2.88;2.63;;;;;;;25.33;40.80;96663.81;4842423;29;20065;-76
2022/07/27 10:34:04;;;;;;;2.58;2.33;;;;;;;25.39;41.05;96665.38;4842591;29;20506;-75
2022/07/27 10:36:47;;;;;;;7.65;2.65;;;;;;;25.47;40.75;96666.66;4842232;29;20141;-75
2022/07/27 10:39:37;;;;;;;2.40;2.10;;;;;;;25.56;40.07;96664.19;4841879;29;20136;-75
2022/07/27 10:42:26;;;;;;;4.50;2.38;;;;;;;25.61;39.64;96661.53;4840000;29;20137;-76
2022/07/27 10:45:07;;;;;;;4.03;2.15;;;;;;;25.61;39.19;96658.84;4841745;29;20064;-76
2022/07/27 10:47:37;;;;;;;2.08;1.80;;;;;;;25.58;38.20;96662.88;4841666;29;20089;-76
2022/07/27 10:50:29;;;;;;;1.90;1.80;;;;;;;25.59;38.21;96664.47;4841547;29;20511;-75
2022/07/27 10:53:02;;;;;;;2.15;1.95;;;;;;;25.61;38.14;96661.53;4841732;29;20153;-75
2022/07/27 10:55:50;;;;;;;3.65;2.20;;;;;;;25.64;38.73;96658.28;4841561;29;20092;-75
2022/07/27 10:58:42;;;;;;;3.83;2.13;;;;;;;25.70;38.75;96654.50;4841648;29;20500;-75
2022/07/27 11:01:12;;;;;;;2.67;1.98;;;;;;;25.74;38.67;96654.75;4841487;29;20092;-76
2022/07/27 11:03:46;;;;;;;4.22;2.35;;;;;;;25.73;38.44;96648.59;4842791;29;20080;-77
2022/07/27 11:06:21;;;;;;;2.22;1.90;;;;;;;25.73;38.53;96647.81;4845136;29;20054;-76
2022/07/27 11:09:08;;;;;;;3.42;2.13;;;;;;;25.71;38.48;96653.41;4845033;29;20058;-75
2022/07/27 11:11:57;;;;;;;2.88;2.00;;;;;;;25.72;38.27;96657.69;4845139;29;20053;-76
2022/07/27 11:14:28;;;;;;;4.43;2.10;;;;;;;25.76;38.32;96661.41;4845309;29;20529;-76
2022/07/27 11:17:00;;;;;;;4.63;1.80;;;;;;;25.85;38.26;96651.72;4845229;29;20094;-76
2022/07/27 11:19:54;;;;;;;3.85;1.80;;;;;;;25.95;37.64;96645.53;4845098;29;20057;-75
2022/07/27 11:22:29;;;;;;;6.15;2.88;;;;;;;26.02;38.18;96638.00;4845380;29;20114;-76
2022/07/27 11:25:17;;;;;;;3.13;1.40;;;;;;;26.14;38.06;96636.84;4845231;29;20061;-76
2022/07/27 11:27:48;;;;;;;2.33;1.90;;;;;;;26.22;37.82;96638.91;4845312;29;20054;-76
2022/07/27 11:30:23;;;;;;;1.80;1.70;;;;;;;26.29;38.17;96640.16;4844875;29;20053;-76
2022/07/27 11:32:53;;;;;;;2.03;1.55;;;;;;;26.34;37.50;96641.19;4844988;29;20050;-76
2022/07/27 11:35:21;;;;;;;2.60;2.00;;;;;;;26.33;37.25;96636.91;4852223;29;20423;-76
2022/07/27 11:37:59;;;;;;;6.10;2.22;;;;;;;26.26;36.98;96638.06;4863556;29;20068;-76
2022/07/27 11:40:27;;;;;;;4.25;1.95;;;;;;;26.20;37.38;96641.84;4858979;29;20515;-77
2022/07/27 11:43:36;;;;;;;2.53;1.90;;;;;;;26.14;37.15;96637.63;4849101;29;20057;-76
2022/07/27 11:46:12;;;;;;;2.75;1.50;;;;;;;26.08;37.31;96636.06;4846920;29;20084;-77
2022/07/27 11:48:48;;;;;;;1.85;1.60;;;;;;;26.06;37.11;96641.72;4845398;29;20108;-75
2022/07/27 11:51:33;;;;;;;2.83;1.55;;;;;;;26.04;36.99;96638.53;4845515;29;20454;-76
2022/07/27 11:54:03;;;;;;;2.67;2.13;;;;;;;26.04;36.70;96632.38;4845117;29;20054;-76
2022/07/27 11:56:33;;;;;;;1.73;1.27;;;;;;;26.04;36.62;96637.72;4845493;29;20491;-75
2022/07/27 11:59:07;;;;;;;1.63;1.50;;;;;;;26.00;36.58;96636.66;4844425;29;20054;-76
2022/07/27 12:01:37;;;;;;;4.28;1.70;;;;;;;26.00;36.15;96634.00;4844638;29;20593;-76
2022/07/27 12:04:12;;;;;;;1.70;1.08;;;;;;;25.96;36.10;96636.44;4844892;29;20087;-77
2022/07/27 12:06:42;;;;;;;3.63;1.63;;;;;;;25.99;36.32;96643.09;4844713;29;20138;-76
2022/07/27 12:09:14;;;;;;;2.88;1.50;;;;;;;25.99;35.80;96638.56;4844614;29;20074;-76
2022/07/27 12:11:53;;;;;;;7.53;1.80;;;;;;;26.04;36.16;96635.03;4844631;29;20046;-76
2022/07/27 12:14:44;;;;;;;2.17;1.20;;;;;;;26.04;34.18;96632.38;4844445;29;20064;-76
2022/07/27 12:17:15;;;;;;;1.55;1.30;;;;;;;26.03;34.78;96638.81;4838244;29;20053;-77
2022/07/27 12:19:50;;;;;;;2.23;1.77;;;;;;;26.04;36.00;96632.38;4844609;29;20136;-76
2022/07/27 12:22:26;;;;;;;3.53;1.73;;;;;;;26.12;37.49;96620.28;4844170;29;20068;-76
2022/07/27 12:24:55;;;;;;;2.45;2.00;;;;;;;26.20;37.24;96625.81;4844193;29;20064;-76
2022/07/27 12:27:25;;;;;;;2.25;1.80;;;;;;;26.24;37.26;96621.50;4844202;29;20053;-76
2022/07/27 12:30:08;;;;;;;2.08;1.50;;;;;;;26.22;36.82;96626.34;4843955;29;20054;-76
2022/07/27 12:32:40;;;;;;;3.72;1.60;;;;;;;26.15;37.13;96628.53;4844205;29;20486;-76
2022/07/27 12:35:24;;;;;;;3.90;1.65;;;;;;;26.09;37.63;96635.81;4844327;29;20054;-76
2022/07/27 12:38:00;;;;;;;4.47;1.77;;;;;;;26.04;37.30;96638.53;4845175;29;20534;-76
2022/07/27 12:40:29;;;;;;;5.30;2.28;;;;;;;26.02;37.68;96645.22;4843957;29;20129;-77
2022/07/27 12:42:59;;;;;;;4.85;1.70;;;;;;;26.04;37.94;96632.38;4843709;29;20412;-75
2022/07/27 12:45:32;;;;;;;4.60;1.85;;;;;;;26.02;37.25;96638.00;4843737;29;20077;-76
2022/07/27 12:48:06;;;;;;;2.42;1.30;;;;;;;26.01;37.08;96640.94;4843663;29;20057;-76
2022/07/27 12:50:35;;;;;;;2.28;1.70;;;;;;;25.96;36.56;96641.00;4843084;29;20498;-76
2022/07/27 12:53:03;;;;;;;3.13;1.42;;;;;;;25.90;36.97;96633.00;4843321;29;20100;-76
2022/07/27 12:55:30;;;;;;;2.78;1.20;;;;;;;25.86;37.17;96626.59;4843739;29;20482;-76
2022/07/27 12:57:58;;;;;;;1.65;1.50;;;;;;;25.86;37.49;96625.78;4843582;29;20141;-76
2022/07/27 13:00:29;;;;;;;6.68;1.65;;;;;;;25.85;37.08;96629.56;4843142;29;20054;-76
2022/07/27 13:03:02;;;;;;;1.55;1.38;;;;;;;25.84;37.12;96623.41;4843238;29;20054;-76
2022/07/27 13:05:30;;;;;;;2.53;1.58;;;;;;;25.85;36.74;96626.88;4842894;29;20537;-76
2022/07/27 13:08:00;;;;;;;1.92;1.58;;;;;;;25.85;36.20;96616.19;4849231;29;20102;-76
2022/07/27 13:10:27;;;;;;;2.13;1.30;;;;;;;25.85;36.39;96618.88;4851912;29;20058;-75
2022/07/27 13:12:55;;;;;;;2.97;1.38;;;;;;;25.86;37.05;96610.56;4846792;29;20050;-75
2022/07/27 13:15:23;;;;;;;3.20;1.65;;;;;;;25.89;36.64;96609.25;4843264;29;20172;-75
2022/07/27 13:17:50;;;;;;;9.20;1.75;;;;;;;25.94;36.67;96608.41;4842847;29;20470;-76
2022/07/27 13:20:18;;;;;;;3.67;1.50;;;;;;;25.97;36.89;96608.63;4842855;29;20057;-76
2022/07/27 13:22:47;;;;;;;1.52;1.42;;;;;;;26.00;36.63;96594.72;4842971;29;20093;-76
2022/07/27 13:25:16;;;;;;;1.67;1.50;;;;;;;26.05;37.04;96601.91;4842848;29;20134;-76
2022/07/27 13:27:45;;;;;;;2.75;1.40;;;;;;;26.08;37.15;96606.66;4842143;29;20511;-76
2022/07/27 13:30:14;;;;;;;5.00;1.23;;;;;;;26.10;36.74;96601.84;4842463;29;20053;-77
2022/07/27 13:32:43;;;;;;;1.90;1.27;;;;;;;26.11;36.96;96606.13;4842600;29;20088;-76
2022/07/27 13:35:12;;;;;;;1.20;1.10;;;;;;;26.12;36.58;96601.56;4842761;29;20076;-76
2022/07/27 13:37:40;;;;;;;4.13;1.67;;;;;;;26.13;36.47;96603.97;4842554;29;20085;-76
2022/07/27 13:40:08;;;;;;;1.25;1.15;;;;;;;26.14;36.21;96600.22;4842533;29;20112;-75
2022/07/27 13:42:38;;;;;;;1.30;1.20;;;;;;;26.15;35.14;96601.81;4842361;29;20134;-76
2022/07/27 13:45:06;;;;;;;3.13;1.15;;;;;;;26.17;34.30;96610.31;4842548;29;20121;-76
2022/07/27 17:32:53;;;;;;;2.72;1.10;;;;;;;25.54;33.25;96554.19;4943021;23;20100;-85
2022/07/27 18:13:35;;;;;;;1.77;1.20;;;;;;;25.17;36.08;96566.16;1309514;23;20323;-72
2022/07/27 18:16:07;;;;;;;1.52;1.13;;;;;;;25.14;35.52;96577.38;4898131;29;20052;-74
2022/07/27 18:18:35;;;;;;;1.20;1.10;;;;;;;25.09;35.93;96576.31;4898209;29;20045;-72
2022/07/27 18:24:57;;;;;;;1.70;0.93;;;;;;;24.99;35.15;96581.75;5088014;23;20081;-81
2022/07/27 20:40:49;;;;;;;4.15;1.67;;;;;;;22.65;41.53;96661.16;5612108;23;20813;-74
2022/07/27 20:43:17;;;;;;;2.60;1.30;;;;;;;22.67;41.39;96658.25;4899024;29;20135;-74
2022/07/27 20:45:44;;;;;;;3.80;1.35;;;;;;;22.67;41.10;96668.91;4899416;29;20072;-74
2022/07/27 20:48:12;;;;;;;2.53;1.40;;;;;;;22.66;41.66;96672.63;4899146;29;20059;-74
2022/07/27 20:50:39;;;;;;;3.72;1.30;;;;;;;22.69;41.66;96670.22;4898535;29;20088;-74
2022/07/27 20:53:07;;;;;;;3.03;1.30;;;;;;;22.69;41.17;96667.56;4899026;29;20060;-74
2022/07/27 20:55:36;;;;;;;1.23;1.15;;;;;;;22.71;41.98;96664.66;4926756;23;20053;-80
2022/07/27 20:58:05;;;;;;;1.83;1.25;;;;;;;22.73;41.52;96666.00;4906574;29;20049;-81
2022/07/27 21:00:32;;;;;;;4.88;1.35;;;;;;;22.74;41.95;96666.81;4905703;29;20120;-80
2022/07/27 21:03:00;;;;;;;2.78;1.20;;;;;;;22.68;40.74;96660.66;4905957;29;20055;-80
2022/07/27 21:05:28;;;;;;;3.78;1.25;;;;;;;22.65;40.72;96668.34;4905579;29;20111;-79
2022/07/27 21:07:56;;;;;;;2.50;1.20;;;;;;;22.62;41.67;96675.00;4905291;29;20144;-80
2022/07/27 21:10:24;;;;;;;2.63;1.40;;;;;;;22.61;41.55;96663.56;4906370;29;20044;-79
2022/07/27 21:12:52;;;;;;;2.95;1.35;;;;;;;22.63;42.28;96661.44;4905745;29;20084;-79
2022/07/27 21:15:21;;;;;;;1.60;1.15;;;;;;;22.65;42.31;96665.69;4904924;29;20076;-80
2022/07/27 21:17:59;;;;;;;2.65;1.20;;;;;;;22.64;42.13;96662.25;4905499;29;20079;-83
2022/07/27 21:20:27;;;;;;;1.10;0.80;;;;;;;22.65;42.29;96658.50;4904000;29;20052;-85
2022/07/27 21:25:36;;;;;;;4.32;1.30;;;;;;;22.63;41.96;96661.44;4907038;29;20142;-82
2022/07/27 21:28:04;;;;;;;3.30;1.30;;;;;;;22.63;41.44;96661.44;4906022;29;20057;-80
2022/07/27 21:30:34;;;;;;;3.38;1.35;;;;;;;22.63;40.89;96663.31;4906384;29;20232;-82
2022/07/27 21:33:01;;;;;;;2.35;1.10;;;;;;;22.64;42.30;96662.25;4905977;29;20068;-81
2022/07/27 21:35:29;;;;;;;1.80;1.17;;;;;;;22.65;41.75;96663.81;4905594;29;20049;-83
2022/07/27 21:37:56;;;;;;;1.27;1.10;;;;;;;22.65;41.86;96663.03;4908390;29;20401;-82
2022/07/27 21:40:25;;;;;;;4.30;1.35;;;;;;;22.66;42.08;96664.66;4909114;29;20052;-81
2022/07/27 21:42:52;;;;;;;2.25;1.20;;;;;;;22.66;42.03;96664.66;4908927;29;20099;-82
2022/07/27 21:45:20;;;;;;;5.50;1.45;;;;;;;22.66;41.21;96667.31;4908416;29;20083;-80
2022/07/27 21:47:49;;;;;;;2.67;1.02;;;;;;;22.67;41.32;96671.56;4907325;29;20095;-82
2022/07/27 21:50:16;;;;;;;1.83;1.27;;;;;;;22.65;40.70;96663.03;4907049;29;20076;-81
2022/07/27 21:52:44;;;;;;;2.83;1.63;;;;;;;22.62;40.52;96667.81;4907280;29;20135;-80
2022/07/27 21:55:12;;;;;;;3.38;1.35;;;;;;;22.60;39.76;96661.94;4906749;29;20056;-81
2022/07/27 21:57:44;;;;;;;3.00;1.17;;;;;;;22.54;39.13;96657.69;4907193;29;20057;-82
2022/07/27 22:00:14;;;;;;;1.45;1.05;;;;;;;22.48;39.35;96664.00;4905998;29;20060;-81
2022/07/27 22:02:41;;;;;;;2.63;1.20;;;;;;;22.44;39.03;96662.91;4906106;29;20062;-83
2022/07/27 22:05:10;;;;;;;3.40;1.20;;;;;;;22.37;39.11;96652.50;4905177;29;20515;-81
2022/07/27 22:07:38;;;;;;;2.33;1.30;;;;;;;22.36;39.22;96663.38;4905786;29;20095;-81
2022/07/27 22:10:06;;;;;;;1.50;1.40;;;;;;;22.33;39.11;96662.03;4905256;29;20045;-80
2022/07/27 22:12:34;;;;;;;2.58;1.30;;;;;;;22.34;39.27;96663.63;4905480;29;20104;-79
2022/07/27 22:15:02;;;;;;;2.00;1.40;;;;;;;22.32;39.30;96654.31;4905374;29;20057;-81
2022/07/27 22:17:29;;;;;;;1.00;0.93;;;;;;;22.33;39.89;96661.25;4904330;29;20520;-84
2022/07/27 22:19:57;;;;;;;1.88;1.33;;;;;;;22.33;39.33;96666.56;4904627;29;20084;-80
2022/07/27 22:22:26;;;;;;;2.20;1.10;;;;;;;22.31;39.06;96666.03;4904297;29;20140;-78
2022/07/27 22:24:53;;;;;;;2.45;1.45;;;;;;;22.27;38.91;96656.94;4907054;29;20401;-82
2022/07/27 22:27:21;;;;;;;4.80;1.20;;;;;;;22.23;39.12;96661.97;4907906;29;20075;-83
2022/07/27 22:29:48;;;;;;;3.72;1.55;;;;;;;22.19;38.86;96664.31;4907381;29;20139;-82
2022/07/27 22:32:16;;;;;;;2.53;1.27;;;;;;;22.14;39.24;96666.13;4906724;29;20088;-81
2022/07/27 22:34:44;;;;;;;1.60;1.05;;;;;;;22.10;39.45;96671.13;4905829;29;20076;-82
2022/07/27 22:37:11;;;;;;;3.60;1.20;;;;;;;22.10;40.54;96671.13;4907043;29;20080;-80
2022/07/27 22:39:43;;;;;;;2.35;1.10;;;;;;;22.13;40.61;96672.50;4905756;29;20063;-78
2022/07/27 22:42:10;;;;;;;2.05;1.40;;;;;;;22.15;39.49;96668.53;4906598;29;20096;-81
2022/07/27 22:44:38;;;;;;;1.88;1.30;;;;;;;22.14;39.52;96671.44;4906144;29;20133;-81
2022/07/27 22:47:06;;;;;;;1.77;1.20;;;;;;;22.14;40.34;96672.22;4905738;29;20052;-80
2022/07/27 22:49:34;;;;;;;1.77;1.30;;;;;;;22.17;40.71;96668.25;4906703;29;20516;-81
2022/07/27 22:52:02;;;;;;;2.85;1.30;;;;;;;22.20;40.86;96679.19;4905866;29;20081;-80
2022/07/27 22:54:32;;;;;;;2.88;1.55;;;;;;;22.19;40.35;96668.81;4905827;29;20076;-79
2022/07/27 22:57:01;;;;;;;2.05;1.35;;;;;;;22.15;40.04;96660.56;4905712;29;20143;-82
2022/07/27 22:59:29;;;;;;;1.90;1.25;;;;;;;22.15;41.56;96665.88;4906145;29;20345;-78
2022/07/27 23:01:57;;;;;;;3.88;1.40;;;;;;;22.13;40.52;96667.97;4909537;29;20145;-81
2022/07/27 23:04:25;;;;;;;1.75;1.10;;;;;;;22.11;40.71;96661.31;4908258;29;20520;-79
2022/07/27 23:06:53;;;;;;;2.33;1.40;;;;;;;22.08;41.03;96667.94;4907593;29;20052;-80
2022/07/27 23:09:22;;;;;;;1.70;1.42;;;;;;;22.09;41.20;96672.19;4907738;29;20112;-82
2022/07/27 23:11:50;;;;;;;2.15;1.20;;;;;;;22.06;41.22;96671.88;4907926;29;20084;-79
2022/07/27 23:14:20;;;;;;;1.85;1.00;;;;;;;22.07;41.68;96674.31;4907530;29;20072;-78
2022/07/27 23:16:47;;;;;;;1.73;1.05;;;;;;;22.06;41.41;96672.69;4907622;29;20128;-79
2022/07/27 23:19:15;;;;;;;3.15;1.30;;;;;;;22.04;40.92;96672.16;4907532;29;20143;-78
2022/07/27 23:21:42;;;;;;;3.60;1.52;;;;;;;22.03;41.21;96662.56;4906573;29;20083;-80
2022/07/27 23:24:10;;;;;;;2.55;1.30;;;;;;;22.02;41.88;96667.09;4907281;29;20087;-81
2022/07/27 23:26:41;;;;;;;1.90;1.30;;;;;;;21.99;40.97;96658.81;4907212;29;20044;-80
2022/07/27 23:29:09;;;;;;;2.53;1.20;;;;;;;21.96;41.74;96667.31;4906713;29;20428;-79
2022/07/27 23:31:37;;;;;;;2.22;1.30;;;;;;;21.95;41.75;96663.88;4905640;29;20072;-78
2022/07/27 23:34:06;;;;;;;1.80;1.27;;;;;;;21.93;41.79;96657.16;4906423;29;20056;-79
2022/07/27 23:36:33;;;;;;;2.00;1.10;;;;;;;21.92;41.90;96656.38;4906451;29;20112;-77
2022/07/27 23:39:01;;;;;;;1.45;1.20;;;;;;;21.92;41.90;96655.59;4905491;29;20074;-77
2022/07/27 23:41:28;;;;;;;3.30;1.50;;;;;;;21.87;41.63;96658.22;4904882;29;20304;-78
2022/07/27 23:43:56;;;;;;;4.30;1.40;;;;;;;21.84;42.40;96658.69;4905243;29;20088;-80
2022/07/27 23:46:24;;;;;;;1.65;1.55;;;;;;;21.83;42.58;96657.09;4905769;29;20096;-80
2022/07/27 23:48:53;;;;;;;2.15;1.30;;;;;;;21.78;42.06;96661.31;4908622;29;20063;-80
2022/07/27 23:51:20;;;;;;;3.30;1.42;;;;;;;21.78;41.78;96650.69;4907138;29;20052;-81
2022/07/27 23:53:48;;;;;;;3.10;1.67;;;;;;;21.74;41.87;96654.91;4908659;29;20084;-82
2022/07/27 23:56:16;;;;;;;2.70;1.55;;;;;;;21.68;42.47;96655.09;4908525;29;20052;-79
2022/07/27 23:58:44;;;;;;;4.20;1.65;;;;;;;21.63;42.58;96647.91;4907858;29;20057;-79
